createdAt,value
2022-11-18T00:02:05.785Z,9.30
2022-11-18T00:04:32.548Z,9.30
2022-11-18T00:06:59.525Z,9.30
2022-11-18T00:09:26.104Z,9.30
2022-11-18T00:12:11.399Z,9.30
2022-11-18T00:14:37.955Z,9.30
2022-11-18T00:17:05.366Z,9.30
2022-11-18T00:19:33.212Z,9.40
2022-11-18T00:22:00.093Z,9.50
2022-11-18T00:24:27.038Z,9.50
2022-11-18T00:26:54.221Z,9.50
2022-11-18T00:29:21.436Z,9.40
2022-11-18T00:31:48.486Z,9.40
2022-11-18T00:34:15.877Z,9.50
2022-11-18T00:36:43.125Z,9.50
2022-11-18T00:39:13.581Z,9.50
2022-11-18T00:41:58.927Z,9.60
2022-11-18T00:44:25.624Z,9.60
2022-11-18T00:46:54.587Z,9.50
2022-11-18T00:49:21.489Z,9.50
2022-11-18T00:51:48.031Z,9.60
2022-11-18T00:54:14.610Z,9.60
2022-11-18T00:56:41.185Z,9.60
2022-11-18T00:59:07.770Z,9.60
2022-11-18T01:01:37.243Z,9.60
2022-11-18T01:04:03.942Z,9.60
2022-11-18T01:06:53.633Z,9.50
2022-11-18T01:09:20.244Z,9.50
2022-11-18T01:12:05.602Z,9.60
2022-11-18T01:14:34.144Z,9.50
2022-11-18T01:17:00.864Z,9.60
2022-11-18T01:19:27.423Z,9.60
2022-11-18T01:21:54.366Z,9.60
2022-11-18T01:24:20.933Z,9.60
2022-11-18T01:26:47.565Z,9.70
2022-11-18T01:29:14.365Z,9.50
2022-11-18T01:31:55.674Z,9.50
2022-11-18T01:34:28.153Z,9.50
2022-11-18T01:36:56.384Z,9.50
2022-11-18T01:39:23.036Z,9.50
2022-11-18T01:41:49.683Z,9.60
2022-11-18T01:44:35.256Z,9.60
2022-11-18T01:47:01.800Z,9.50
2022-11-18T01:49:28.303Z,9.60
2022-11-18T01:51:56.047Z,9.60
2022-11-18T01:54:27.602Z,9.50
2022-11-18T01:56:56.589Z,9.60
2022-11-18T01:59:25.897Z,9.60
2022-11-18T02:01:59.496Z,9.60
2022-11-18T02:04:27.178Z,9.60
2022-11-18T02:06:54.361Z,9.60
2022-11-18T02:09:21.619Z,9.60
2022-11-18T02:11:51.274Z,9.60
2022-11-18T02:14:20.133Z,9.60
2022-11-18T02:16:49.696Z,9.50
2022-11-18T02:19:25.438Z,9.60
2022-11-18T02:22:10.899Z,9.60
2022-11-18T02:24:42.992Z,9.60
2022-11-18T02:27:21.695Z,9.60
2022-11-18T02:30:03.688Z,9.60
2022-11-18T02:32:35.663Z,9.60
2022-11-18T02:35:08.885Z,9.50
2022-11-18T02:37:44.579Z,9.60
2022-11-18T02:40:21.968Z,9.60
2022-11-18T02:42:51.985Z,9.60
2022-11-18T02:45:19.001Z,9.60
2022-11-18T02:47:46.787Z,9.70
2022-11-18T02:50:16.027Z,9.70
2022-11-18T02:52:42.832Z,9.70
2022-11-18T02:55:11.488Z,9.60
2022-11-18T02:57:40.028Z,9.60
2022-11-18T03:00:07.140Z,9.60
2022-11-18T03:02:41.992Z,9.60
2022-11-18T03:05:15.091Z,9.60
2022-11-18T03:07:44.233Z,9.50
2022-11-18T03:10:10.928Z,9.60
2022-11-18T03:12:42.284Z,9.60
2022-11-18T03:15:16.301Z,9.50
2022-11-18T03:17:52.297Z,9.50
2022-11-18T03:20:28.010Z,9.50
2022-11-18T03:22:57.423Z,9.50
2022-11-18T03:25:30.130Z,9.50
2022-11-18T03:28:03.206Z,9.50
2022-11-18T03:30:31.009Z,9.50
2022-11-18T03:33:00.231Z,9.50
2022-11-18T03:35:28.986Z,9.50
2022-11-18T03:37:59.517Z,9.60
2022-11-18T03:40:28.167Z,9.50
2022-11-18T03:43:01.116Z,9.60
2022-11-18T03:45:39.694Z,9.60
2022-11-18T03:48:12.191Z,9.60
2022-11-18T03:50:59.857Z,9.60
2022-11-18T03:53:27.743Z,9.70
2022-11-18T03:55:58.784Z,9.70
2022-11-18T03:58:28.961Z,9.70
2022-11-18T04:01:01.724Z,9.70
2022-11-18T04:03:28.261Z,9.70
2022-11-18T04:05:58.843Z,9.70
2022-11-18T04:08:28.329Z,9.70
2022-11-18T04:10:58.038Z,9.70
2022-11-18T04:13:26.233Z,9.70
2022-11-18T04:15:53.596Z,9.70
2022-11-18T04:18:20.200Z,9.60
2022-11-18T04:20:46.832Z,9.70
2022-11-18T04:23:13.386Z,9.70
2022-11-18T04:25:39.989Z,9.70
2022-11-18T04:28:06.758Z,9.70
2022-11-18T04:30:33.409Z,9.70
2022-11-18T04:33:00.135Z,9.70
2022-11-18T04:35:27.274Z,9.70
2022-11-18T04:37:54.235Z,9.80
2022-11-18T04:40:20.864Z,9.70
2022-11-18T04:42:47.557Z,9.70
2022-11-18T04:45:14.138Z,9.70
2022-11-18T04:47:40.662Z,9.70
2022-11-18T04:50:07.265Z,9.70
2022-11-18T04:52:33.864Z,9.60
2022-11-18T04:55:00.376Z,9.60
2022-11-18T04:57:26.911Z,9.60
2022-11-18T04:59:53.433Z,9.60
2022-11-18T05:02:19.903Z,9.60
2022-11-18T05:04:46.426Z,9.60
2022-11-18T05:07:14.784Z,9.60
2022-11-18T05:09:41.581Z,9.60
2022-11-18T05:12:30.099Z,9.60
2022-11-18T05:14:56.927Z,9.60
2022-11-18T05:17:23.986Z,9.50
2022-11-18T05:19:50.675Z,9.60
2022-11-18T05:22:17.518Z,9.50
2022-11-18T05:24:44.224Z,9.60
2022-11-18T05:27:11.199Z,9.60
2022-11-18T05:29:37.820Z,9.60
2022-11-18T05:32:04.945Z,9.60
2022-11-18T05:34:31.688Z,9.50
2022-11-18T05:36:58.425Z,9.50
2022-11-18T05:39:25.222Z,9.50
2022-11-18T05:42:10.462Z,9.50
2022-11-18T05:44:37.186Z,9.50
2022-11-18T05:47:03.832Z,9.50
2022-11-18T05:49:30.462Z,9.50
2022-11-18T05:51:57.102Z,9.50
2022-11-18T05:54:23.821Z,9.50
2022-11-18T05:56:51.515Z,9.60
2022-11-18T05:59:18.421Z,9.50
2022-11-18T06:01:47.656Z,9.50
2022-11-18T06:04:17.638Z,9.50
2022-11-18T06:06:45.569Z,9.50
2022-11-18T06:09:12.275Z,9.50
2022-11-18T06:11:41.653Z,9.50
2022-11-18T06:14:10.854Z,9.50
2022-11-18T06:16:40.970Z,9.40
2022-11-18T06:19:30.716Z,9.40
2022-11-18T06:21:55.590Z,9.40
2022-11-18T06:24:22.193Z,9.50
2022-11-18T06:26:48.860Z,9.40
2022-11-18T06:29:19.483Z,9.50
2022-11-18T06:31:48.345Z,9.50
2022-11-18T06:34:14.893Z,9.50
2022-11-18T06:36:41.432Z,9.50
2022-11-18T06:39:08.052Z,9.40
2022-11-18T06:41:34.663Z,9.40
2022-11-18T06:44:01.341Z,9.50
2022-11-18T06:46:47.063Z,9.40
2022-11-18T06:49:13.658Z,9.50
2022-11-18T06:51:40.332Z,9.50
2022-11-18T06:54:10.727Z,9.70
2022-11-18T06:56:38.004Z,9.60
2022-11-18T06:59:04.620Z,9.60
2022-11-18T07:01:32.206Z,9.60
2022-11-18T07:04:01.766Z,9.60
2022-11-18T07:06:30.194Z,9.60
2022-11-18T07:08:57.172Z,9.70
2022-11-18T07:11:25.284Z,9.70
2022-11-18T07:13:52.245Z,9.70
2022-11-18T07:16:20.245Z,9.70
2022-11-18T07:18:47.658Z,9.60
2022-11-18T07:21:16.445Z,9.60
2022-11-18T07:23:43.424Z,9.60
2022-11-18T07:26:09.936Z,9.60
2022-11-18T07:28:38.858Z,9.70
2022-11-18T07:31:12.961Z,9.70
2022-11-18T07:33:40.502Z,9.70
2022-11-18T07:36:11.445Z,9.70
2022-11-18T07:38:38.425Z,9.60
2022-11-18T07:41:12.350Z,9.70
2022-11-18T07:43:39.180Z,9.60
2022-11-18T07:46:16.375Z,9.60
2022-11-18T07:48:43.725Z,9.60
2022-11-18T07:51:10.640Z,9.60
2022-11-18T07:53:37.571Z,9.60
2022-11-18T07:56:04.649Z,9.60
2022-11-18T07:58:31.197Z,9.60
2022-11-18T08:01:13.902Z,9.60
2022-11-18T08:03:40.906Z,9.60
2022-11-18T08:06:08.420Z,9.60
2022-11-18T08:08:35.457Z,9.60
2022-11-18T08:11:03.126Z,9.60
2022-11-18T08:13:29.896Z,9.70
2022-11-18T08:15:56.437Z,9.70
2022-11-18T08:18:31.993Z,9.70
2022-11-18T08:21:05.219Z,9.70
2022-11-18T08:23:36.136Z,9.70
2022-11-18T08:26:07.206Z,9.70
2022-11-18T08:28:33.858Z,9.70
2022-11-18T08:31:00.470Z,9.70
2022-11-18T08:33:27.073Z,9.70
2022-11-18T08:35:53.597Z,9.80
2022-11-18T08:38:20.152Z,9.80
2022-11-18T08:40:47.997Z,9.80
2022-11-18T08:43:14.606Z,9.80
2022-11-18T08:45:41.208Z,9.80
2022-11-18T08:48:12.576Z,9.80
2022-11-18T08:50:39.130Z,9.80
2022-11-18T08:53:05.671Z,9.80
2022-11-18T08:55:32.370Z,9.80
2022-11-18T08:57:59.009Z,9.80
2022-11-18T09:00:25.669Z,9.80
2022-11-18T09:02:52.736Z,9.90
2022-11-18T09:05:19.509Z,9.90
2022-11-18T09:07:52.172Z,9.90
2022-11-18T09:10:18.807Z,9.90
2022-11-18T09:12:45.435Z,10.00
2022-11-18T09:15:13.913Z,10.00
2022-11-18T09:17:41.075Z,10.00
2022-11-18T09:20:07.925Z,10.10
2022-11-18T09:22:36.423Z,10.10
2022-11-18T09:25:03.076Z,10.10
2022-11-18T09:27:29.764Z,10.10
2022-11-18T09:29:56.336Z,10.10
2022-11-18T09:32:22.859Z,10.10
2022-11-18T09:34:49.440Z,10.10
2022-11-18T09:37:16.402Z,10.10
2022-11-18T09:39:44.190Z,10.10
2022-11-18T09:42:19.326Z,10.10
2022-11-18T09:44:46.046Z,10.10
2022-11-18T09:47:19.746Z,10.10
2022-11-18T09:49:46.526Z,10.10
2022-11-18T09:52:13.103Z,10.10
2022-11-18T09:54:39.796Z,10.10
2022-11-18T09:57:13.676Z,10.10
2022-11-18T09:59:40.668Z,10.00
2022-11-18T10:02:16.413Z,10.00
2022-11-18T10:04:42.994Z,10.00
2022-11-18T10:07:18.858Z,10.00
2022-11-18T10:09:46.312Z,10.00
2022-11-18T10:12:25.029Z,10.00
2022-11-18T10:14:57.525Z,10.00
2022-11-18T10:17:27.150Z,10.10
2022-11-18T10:20:01.401Z,10.10
2022-11-18T10:22:28.001Z,10.10
2022-11-18T10:24:55.940Z,10.20
2022-11-18T10:27:23.496Z,10.20
2022-11-18T10:29:56.043Z,10.10
2022-11-18T10:32:22.634Z,10.20
2022-11-18T10:34:50.797Z,10.20
2022-11-18T10:37:45.371Z,10.20
2022-11-18T10:40:23.310Z,10.30
2022-11-18T10:42:49.944Z,10.30
2022-11-18T10:45:24.968Z,10.30
2022-11-18T10:48:00.906Z,10.20
2022-11-18T10:50:37.033Z,10.20
2022-11-18T10:53:05.584Z,10.20
2022-11-18T10:55:32.753Z,10.20
2022-11-18T10:57:59.491Z,10.20
2022-11-18T11:00:32.044Z,10.20
2022-11-18T11:02:58.999Z,10.20
2022-11-18T11:05:26.616Z,10.20
2022-11-18T11:08:34.483Z,10.30
2022-11-18T11:10:55.466Z,10.30
2022-11-18T11:13:22.919Z,10.30
2022-11-18T11:15:51.005Z,10.30
2022-11-18T11:18:42.067Z,10.30
2022-11-18T11:21:11.420Z,10.30
2022-11-18T11:23:38.002Z,10.30
2022-11-18T11:29:25.257Z,10.60
2022-11-18T11:32:10.089Z,10.70
2022-11-18T11:34:49.098Z,10.70
2022-11-18T11:37:48.013Z,10.70
2022-11-18T11:40:34.706Z,10.70
2022-11-18T11:43:12.599Z,10.70
2022-11-18T11:45:57.709Z,10.70
2022-11-18T11:48:59.723Z,10.90
2022-11-18T11:51:33.244Z,10.90
2022-11-18T11:54:18.620Z,10.80
2022-11-18T11:56:48.977Z,10.80
2022-11-18T11:59:18.411Z,10.80
2022-11-18T12:02:00.826Z,10.80
2022-11-18T12:04:30.933Z,10.80
2022-11-18T12:06:58.876Z,10.80
2022-11-18T12:09:31.837Z,10.80
2022-11-18T12:12:42.522Z,10.90
2022-11-18T12:15:15.240Z,10.90
2022-11-18T12:18:05.179Z,10.90
2022-11-18T12:20:34.782Z,11.10
2022-11-18T12:23:15.412Z,11.00
2022-11-18T12:25:48.078Z,10.90
2022-11-18T12:28:31.863Z,11.00
2022-11-18T12:31:17.335Z,11.00
2022-11-18T12:33:50.361Z,11.00
2022-11-18T12:36:36.545Z,11.10
2022-11-18T12:39:21.873Z,11.10
2022-11-18T12:42:07.244Z,11.20
2022-11-18T12:44:33.912Z,11.30
2022-11-18T12:47:01.466Z,11.50
2022-11-18T12:49:28.156Z,11.60
2022-11-18T12:54:50.161Z,11.60
2022-11-18T12:57:24.437Z,11.70
2022-11-18T12:59:51.308Z,11.70
2022-11-18T13:02:24.069Z,11.60
2022-11-18T13:05:07.548Z,11.50
2022-11-18T13:07:57.350Z,11.50
2022-11-18T13:10:27.290Z,11.60
2022-11-18T13:12:54.118Z,11.70
2022-11-18T13:15:39.469Z,11.50
2022-11-18T13:18:07.477Z,11.30
2022-11-18T13:20:35.507Z,11.20
2022-11-18T13:23:20.821Z,11.10
2022-11-18T13:25:48.210Z,11.00
2022-11-18T13:28:23.926Z,10.90
2022-11-18T13:31:13.874Z,10.80
2022-11-18T13:33:40.610Z,10.70
2022-11-18T13:36:16.169Z,10.70
2022-11-18T13:38:54.489Z,10.70
2022-11-18T13:41:24.056Z,10.90
2022-11-18T13:43:53.973Z,11.20
2022-11-18T13:46:21.956Z,11.30
2022-11-18T13:48:59.961Z,11.30
2022-11-18T13:51:26.680Z,11.40
2022-11-18T13:53:53.483Z,11.20
2022-11-18T13:56:30.272Z,11.20
2022-11-18T13:59:18.112Z,11.10
2022-11-18T14:01:46.041Z,11.10
2022-11-18T14:04:23.335Z,11.00
2022-11-18T14:06:49.858Z,10.90
2022-11-18T14:09:28.871Z,10.80
2022-11-18T14:15:31.603Z,10.90
2022-11-18T14:17:59.555Z,10.90
2022-11-18T14:20:27.086Z,11.00
2022-11-18T14:23:00.852Z,11.00
2022-11-18T14:25:30.568Z,11.00
2022-11-18T14:28:01.554Z,11.10
2022-11-18T14:30:35.667Z,11.00
2022-11-18T14:33:08.337Z,11.00
2022-11-18T14:35:35.329Z,11.00
2022-11-18T14:38:35.563Z,10.90
2022-11-18T14:41:01.394Z,10.90
2022-11-18T14:43:28.132Z,10.80
2022-11-18T14:45:59.130Z,10.70
2022-11-18T14:48:32.135Z,10.70
2022-11-18T14:50:59.611Z,10.70
2022-11-18T14:53:26.421Z,10.60
2022-11-18T14:55:53.928Z,10.50
2022-11-18T14:58:20.438Z,10.40
2022-11-18T15:00:48.176Z,10.30
2022-11-18T15:03:15.029Z,10.20
2022-11-18T15:05:41.729Z,10.10
2022-11-18T15:08:08.731Z,10.20
2022-11-18T15:10:35.560Z,10.10
2022-11-18T15:13:02.143Z,10.00
2022-11-18T15:15:28.972Z,9.90
2022-11-18T15:17:55.569Z,9.90
2022-11-18T15:20:22.714Z,9.90
2022-11-18T15:22:49.282Z,9.80
2022-11-18T15:25:15.915Z,9.80
2022-11-18T15:27:42.497Z,9.80
2022-11-18T15:30:11.483Z,9.70
2022-11-18T15:32:39.318Z,9.70
2022-11-18T15:35:06.187Z,9.70
2022-11-18T15:37:32.723Z,9.80
2022-11-18T15:39:59.616Z,9.80
2022-11-18T15:42:26.233Z,9.70
2022-11-18T15:44:52.853Z,9.60
2022-11-18T15:47:19.389Z,9.70
2022-11-18T15:49:45.898Z,9.60
2022-11-18T15:52:12.873Z,9.60
2022-11-18T15:54:39.510Z,9.60
2022-11-18T15:57:06.159Z,9.60
2022-11-18T15:59:32.860Z,9.50
2022-11-18T16:01:59.424Z,9.40
2022-11-18T16:04:26.111Z,9.30
2022-11-18T16:06:53.521Z,9.30
2022-11-18T16:09:20.386Z,9.30
2022-11-18T16:12:05.813Z,9.30
2022-11-18T16:14:32.552Z,9.30
2022-11-18T16:16:59.133Z,9.20
2022-11-18T16:19:26.594Z,9.20
2022-11-18T16:21:54.178Z,9.10
2022-11-18T16:24:22.726Z,9.00
2022-11-18T16:26:49.633Z,9.00
2022-11-18T16:29:17.366Z,8.90
2022-11-18T16:31:50.265Z,8.90
2022-11-18T16:34:18.228Z,8.70
2022-11-18T16:36:49.942Z,8.70
2022-11-18T16:39:17.928Z,8.70
2022-11-18T16:41:53.708Z,8.70
2022-11-18T16:44:20.214Z,8.60
2022-11-18T16:46:54.184Z,8.60
2022-11-18T16:49:21.754Z,8.60
2022-11-18T16:51:49.392Z,8.50
2022-11-18T16:54:17.943Z,8.50
2022-11-18T16:56:45.272Z,8.40
2022-11-18T16:59:13.579Z,8.40
2022-11-18T17:01:40.690Z,8.40
2022-11-18T17:04:10.619Z,8.40
2022-11-18T17:06:38.131Z,8.40
2022-11-18T17:09:04.861Z,8.40
2022-11-18T17:11:40.737Z,8.30
2022-11-18T17:14:07.309Z,8.30
2022-11-18T17:16:33.820Z,8.20
2022-11-18T17:19:02.912Z,8.20
2022-11-18T17:21:32.567Z,8.10
2022-11-18T17:23:59.081Z,8.10
2022-11-18T17:26:27.393Z,8.10
2022-11-18T17:28:57.081Z,8.10
2022-11-18T17:31:24.231Z,8.00
2022-11-18T17:33:54.360Z,8.00
2022-11-18T17:36:22.340Z,8.00
2022-11-18T17:38:53.279Z,7.90
2022-11-18T17:41:39.872Z,8.00
2022-11-18T17:44:07.377Z,7.90
2022-11-18T17:46:37.981Z,7.90
2022-11-18T17:49:06.255Z,8.00
2022-11-18T17:51:32.920Z,8.00
2022-11-18T17:54:11.468Z,8.00
2022-11-18T17:56:38.431Z,8.00
2022-11-18T17:59:04.962Z,8.00
2022-11-18T18:01:31.912Z,8.00
2022-11-18T18:06:47.003Z,8.00
2022-11-18T18:09:13.555Z,8.00
2022-11-18T18:11:42.950Z,8.00
2022-11-18T18:14:16.334Z,8.00
2022-11-18T18:16:43.403Z,7.90
2022-11-18T18:19:10.666Z,7.80
2022-11-18T18:21:37.454Z,7.80
2022-11-18T18:24:07.680Z,7.80
2022-11-18T18:26:34.500Z,7.70
2022-11-18T18:29:02.461Z,7.70
2022-11-18T18:31:29.647Z,7.70
2022-11-18T18:33:56.942Z,7.70
2022-11-18T18:36:26.781Z,7.70
2022-11-18T18:38:53.391Z,7.70
2022-11-18T18:41:24.660Z,7.60
2022-11-18T18:43:51.359Z,7.60
2022-11-18T18:46:28.585Z,7.50
2022-11-18T18:48:59.363Z,7.50
2022-11-18T18:51:27.634Z,7.50
2022-11-18T18:53:58.238Z,7.50
2022-11-18T18:56:25.538Z,7.50
2022-11-18T18:59:04.772Z,7.50
2022-11-18T19:01:31.568Z,7.50
2022-11-18T19:03:59.542Z,7.50
2022-11-18T19:09:18.709Z,7.60
2022-11-18T19:12:07.098Z,7.60
2022-11-18T19:14:39.451Z,7.60
2022-11-18T19:17:13.068Z,7.60
2022-11-18T19:19:59.537Z,7.60
2022-11-18T19:22:28.177Z,7.60
2022-11-18T19:24:55.400Z,7.60
2022-11-18T19:27:28.260Z,7.60
2022-11-18T19:29:54.891Z,7.60
2022-11-18T19:32:28.781Z,7.60
2022-11-18T19:34:55.967Z,7.60
2022-11-18T19:37:32.797Z,7.60
2022-11-18T19:40:05.661Z,7.50
2022-11-18T19:42:39.435Z,7.60
2022-11-18T19:45:07.279Z,7.60
2022-11-18T19:47:33.987Z,7.60
2022-11-18T19:50:01.470Z,7.60
2022-11-18T19:52:28.572Z,7.60
2022-11-18T19:54:55.262Z,7.60
2022-11-18T19:57:29.466Z,7.60
2022-11-18T19:59:56.024Z,7.70
2022-11-18T20:02:22.729Z,7.70
2022-11-18T20:05:07.981Z,7.80
2022-11-18T20:07:34.761Z,7.70
2022-11-18T20:10:06.546Z,7.70
2022-11-18T20:12:33.480Z,7.70
2022-11-18T20:15:00.106Z,7.70
2022-11-18T20:17:26.867Z,7.80
2022-11-18T20:19:53.534Z,7.80
2022-11-18T20:22:20.149Z,7.80
2022-11-18T20:24:46.860Z,7.80
2022-11-18T20:27:18.290Z,7.90
2022-11-18T20:29:45.069Z,8.00
2022-11-18T20:32:11.759Z,8.00
2022-11-18T20:34:39.860Z,8.10
2022-11-18T20:37:06.375Z,8.00
2022-11-18T20:39:33.041Z,8.10
2022-11-18T20:42:18.506Z,8.10
2022-11-18T20:44:45.807Z,8.10
2022-11-18T20:47:12.359Z,8.10
2022-11-18T20:49:38.895Z,8.20
2022-11-18T20:52:05.522Z,8.20
2022-11-18T20:54:33.650Z,8.20
2022-11-18T20:57:00.406Z,8.20
2022-11-18T20:59:27.136Z,8.20
2022-11-18T21:01:53.839Z,8.10
2022-11-18T21:04:20.570Z,8.10
2022-11-18T21:06:47.690Z,8.10
2022-11-18T21:09:14.625Z,8.10
2022-11-18T21:11:41.291Z,8.10
2022-11-18T21:14:23.304Z,8.10
2022-11-18T21:16:51.117Z,8.10
2022-11-18T21:19:18.143Z,8.10
2022-11-18T21:21:44.980Z,8.10
2022-11-18T21:24:19.927Z,8.10
2022-11-18T21:26:47.700Z,8.00
2022-11-18T21:29:15.391Z,7.90
2022-11-18T21:31:42.605Z,8.00
2022-11-18T21:34:10.078Z,8.00
2022-11-18T21:36:42.899Z,8.10
2022-11-18T21:39:11.897Z,8.10
2022-11-18T21:41:38.856Z,8.10
2022-11-18T21:44:07.520Z,8.10
2022-11-18T21:46:34.741Z,8.10
2022-11-18T21:49:01.880Z,8.10
2022-11-18T21:51:28.491Z,8.20
2022-11-18T21:53:55.100Z,8.10
2022-11-18T21:56:22.709Z,8.10
2022-11-18T21:58:49.378Z,8.00
2022-11-18T22:01:20.324Z,8.00
2022-11-18T22:03:55.808Z,7.90
2022-11-18T22:06:24.163Z,7.90
2022-11-18T22:08:51.195Z,8.00
2022-11-18T22:11:17.709Z,8.00
2022-11-18T22:13:44.227Z,7.90
2022-11-18T22:16:12.115Z,7.90
2022-11-18T22:18:40.027Z,7.90
2022-11-18T22:21:08.619Z,7.90
2022-11-18T22:23:35.508Z,7.90
2022-11-18T22:26:05.954Z,7.90
2022-11-18T22:28:32.567Z,7.90
2022-11-18T22:31:06.623Z,8.00
2022-11-18T22:33:33.879Z,8.00
2022-11-18T22:36:04.813Z,7.90
2022-11-18T22:38:31.671Z,7.80
2022-11-18T22:40:59.319Z,7.70
2022-11-18T22:43:25.806Z,7.70
2022-11-18T22:46:06.426Z,7.60
2022-11-18T22:48:33.683Z,7.50
2022-11-18T22:51:01.849Z,7.50
2022-11-18T22:53:29.108Z,7.40
2022-11-18T22:56:05.855Z,7.30
2022-11-18T22:58:32.837Z,7.40
2022-11-18T23:01:00.404Z,7.40
2022-11-18T23:03:27.002Z,7.40
2022-11-18T23:05:54.677Z,7.40
2022-11-18T23:08:22.091Z,7.40
2022-11-18T23:10:48.722Z,7.20
2022-11-18T23:13:34.378Z,7.30
2022-11-18T23:16:00.971Z,7.10
2022-11-18T23:18:27.971Z,7.00
2022-11-18T23:21:01.545Z,7.00
2022-11-18T23:23:29.104Z,7.00
2022-11-18T23:26:02.169Z,7.00
2022-11-18T23:28:28.680Z,6.90
2022-11-18T23:31:03.007Z,6.80
2022-11-18T23:33:29.502Z,6.80
2022-11-18T23:35:56.214Z,6.80
2022-11-18T23:38:22.890Z,6.80
2022-11-18T23:41:00.118Z,6.70
2022-11-18T23:43:27.055Z,6.70
2022-11-18T23:45:53.680Z,6.70
2022-11-18T23:48:20.816Z,6.60
2022-11-18T23:50:54.310Z,6.60
2022-11-18T23:53:21.988Z,6.50
2022-11-18T23:55:48.850Z,6.50
2022-11-18T23:58:16.151Z,6.50
